Time;durP1;ratioP1;P1;durP2;ratioP2;P2;SDS_P1;SDS_P2;PMS_P1;PMS_P2;Temp;Humidity;BMP_temperature;BMP_pressure;BME280_temperature;BME280_humidity;BME280_pressure;Samples;Min_cycle;Max_cycle;Signal;HPM_P1;HPM_P2
2023/07/11 00:01:31;;;;;;;6.43;5.07;;;20.50;99.90;;;;;;5012910;28;20208;-77
2023/07/11 00:03:58;;;;;;;6.77;4.93;;;20.50;99.90;;;;;;5007872;28;20780;-77
2023/07/11 00:06:25;;;;;;;6.33;4.70;;;20.50;99.90;;;;;;5003660;28;20642;-77
2023/07/11 00:08:51;;;;;;;4.93;4.40;;;20.40;99.90;;;;;;4990686;28;20625;-77
2023/07/11 00:11:19;;;;;;;6.13;4.90;;;20.40;99.90;;;;;;5001097;28;20200;-77
2023/07/11 00:13:49;;;;;;;5.27;4.10;;;20.50;99.90;;;;;;5000982;28;20229;-77
2023/07/11 00:16:17;;;;;;;5.00;4.30;;;20.50;99.90;;;;;;5007870;28;20233;-78
2023/07/11 00:18:44;;;;;;;4.90;4.40;;;20.50;99.90;;;;;;4998780;28;20227;-77
2023/07/11 00:21:12;;;;;;;5.73;4.67;;;20.40;99.90;;;;;;4997447;28;20262;-77
2023/07/11 00:23:39;;;;;;;5.17;4.30;;;20.40;99.90;;;;;;4998779;28;20718;-77
2023/07/11 00:26:06;;;;;;;5.63;4.43;;;20.30;99.90;;;;;;5000434;28;20278;-77
2023/07/11 00:28:32;;;;;;;6.67;4.47;;;20.20;99.90;;;;;;4979861;28;20204;-77
2023/07/11 00:31:02;;;;;;;4.90;4.13;;;20.20;99.90;;;;;;5001497;28;20676;-77
2023/07/11 00:33:29;;;;;;;7.03;6.43;;;20.20;99.90;;;;;;4992624;28;20239;-77
2023/07/11 00:35:57;;;;;;;5.23;4.43;;;20.10;99.90;;;;;;4989062;28;20738;-78
2023/07/11 00:38:24;;;;;;;5.70;4.60;;;20.10;99.90;;;;;;5000319;28;20675;-77
2023/07/11 00:40:51;;;;;;;5.73;4.50;;;20.10;99.90;;;;;;4981502;28;20208;-77
2023/07/11 00:43:21;;;;;;;5.07;4.47;;;20.00;99.90;;;;;;4988326;28;20228;-77
2023/07/11 00:46:15;;;;;;;7.00;4.90;;;20.00;99.90;;;;;;5005523;28;20192;-77
2023/07/11 00:48:47;;;;;;;5.70;5.10;;;20.00;99.90;;;;;;4997597;28;20695;-77
2023/07/11 00:51:19;;;;;;;5.30;4.37;;;20.00;99.90;;;;;;4986035;28;20207;-77
2023/07/11 00:53:48;;;;;;;9.13;7.20;;;20.00;99.90;;;;;;4984430;28;20319;-78
2023/07/11 00:56:22;;;;;;;7.87;7.17;;;19.90;99.90;;;;;;5007897;22;20220;-75
2023/07/11 00:58:50;;;;;;;7.43;5.07;;;19.90;99.90;;;;;;5009493;28;20222;-77
2023/07/11 01:01:19;;;;;;;5.97;4.70;;;19.90;99.90;;;;;;5000878;28;20638;-77
2023/07/11 01:03:47;;;;;;;6.00;5.03;;;19.80;99.90;;;;;;5008722;28;20230;-76
2023/07/11 01:06:15;;;;;;;5.93;5.13;;;19.80;99.90;;;;;;5006414;28;20239;-77
2023/07/11 01:08:43;;;;;;;5.77;5.03;;;19.70;99.90;;;;;;4991746;28;20637;-77
2023/07/11 01:11:10;;;;;;;5.13;4.40;;;19.70;99.90;;;;;;4990603;28;20645;-76
2023/07/11 01:13:38;;;;;;;4.80;4.30;;;19.70;99.90;;;;;;5011111;28;20676;-77
2023/07/11 01:16:05;;;;;;;5.20;4.70;;;19.70;99.90;;;;;;4994016;28;20713;-76
2023/07/11 01:18:35;;;;;;;6.27;4.97;;;19.60;99.90;;;;;;4998475;28;20215;-77
2023/07/11 01:21:05;;;;;;;5.37;4.83;;;19.60;99.90;;;;;;4985454;28;20247;-77
2023/07/11 01:23:33;;;;;;;6.33;5.07;;;19.60;99.90;;;;;;4995760;28;20274;-76
2023/07/11 01:26:01;;;;;;;6.97;5.47;;;19.60;99.90;;;;;;4978003;28;20235;-77
2023/07/11 01:28:28;;;;;;;6.63;5.40;;;19.50;99.90;;;;;;4996608;28;20195;-77
2023/07/11 01:30:56;;;;;;;6.87;5.20;;;19.40;99.90;;;;;;4993350;28;20479;-77
2023/07/11 01:33:24;;;;;;;6.13;5.07;;;19.40;99.90;;;;;;4988686;28;20592;-77
2023/07/11 01:35:52;;;;;;;6.10;5.23;;;19.40;99.90;;;;;;5010189;28;20706;-77
2023/07/11 01:38:21;;;;;;;6.90;5.20;;;19.30;99.90;;;;;;5009462;28;20256;-77
2023/07/11 01:40:49;;;;;;;6.17;5.30;;;19.30;99.90;;;;;;4991803;28;20206;-77
2023/07/11 01:43:18;;;;;;;7.23;5.17;;;19.30;99.90;;;;;;4990080;28;20211;-77
2023/07/11 01:45:46;;;;;;;6.70;5.73;;;19.30;99.90;;;;;;4986530;28;20208;-77
2023/07/11 01:48:13;;;;;;;8.33;7.40;;;19.30;99.90;;;;;;4993802;28;20277;-77
2023/07/11 01:50:39;;;;;;;8.90;8.10;;;19.30;99.90;;;;;;4985392;28;20216;-77
2023/07/11 01:53:06;;;;;;;5.87;5.07;;;19.30;99.90;;;;;;5011026;28;20202;-77
2023/07/11 01:55:33;;;;;;;7.27;5.30;;;19.30;99.90;;;;;;4988336;28;20440;-78
2023/07/11 01:58:01;;;;;;;7.20;5.67;;;19.20;99.90;;;;;;4980349;28;20231;-77
2023/07/11 02:00:28;;;;;;;7.63;5.37;;;19.20;99.90;;;;;;4994005;28;20245;-77
2023/07/11 02:02:55;;;;;;;6.57;5.00;;;19.20;99.90;;;;;;5010220;28;20260;-77
2023/07/11 02:05:23;;;;;;;6.03;5.27;;;19.20;99.90;;;;;;4988674;28;20286;-77
2023/07/11 02:07:50;;;;;;;7.30;5.97;;;19.20;99.90;;;;;;4991784;28;20663;-76
2023/07/11 02:10:17;;;;;;;5.93;4.80;;;19.20;99.90;;;;;;5009216;28;20251;-77
2023/07/11 02:12:44;;;;;;;6.53;5.13;;;19.20;99.90;;;;;;4990601;28;20631;-77
2023/07/11 02:15:12;;;;;;;7.50;5.20;;;19.20;99.90;;;;;;4989170;28;20695;-77
2023/07/11 02:17:39;;;;;;;5.77;5.17;;;19.20;99.90;;;;;;5009791;28;20275;-77
2023/07/11 02:20:09;;;;;;;6.27;4.90;;;19.20;99.90;;;;;;4992040;28;20670;-77
2023/07/11 02:22:39;;;;;;;5.93;4.80;;;19.20;99.90;;;;;;4993979;28;20631;-76
2023/07/11 02:25:07;;;;;;;8.97;6.60;;;19.10;99.90;;;;;;4975751;28;20207;-77
2023/07/11 02:27:33;;;;;;;5.90;4.87;;;19.10;99.90;;;;;;4976507;28;20250;-77
2023/07/11 02:30:00;;;;;;;7.77;4.83;;;19.10;99.90;;;;;;4994083;28;20693;-77
2023/07/11 02:32:28;;;;;;;6.93;5.33;;;19.10;99.90;;;;;;5013110;28;20631;-77
2023/07/11 02:34:55;;;;;;;5.67;4.50;;;19.10;99.90;;;;;;5010629;28;20285;-77
2023/07/11 02:37:22;;;;;;;5.93;4.80;;;19.20;99.90;;;;;;4990663;28;20233;-77
2023/07/11 02:39:49;;;;;;;7.13;5.40;;;19.20;99.90;;;;;;5007069;28;20295;-77
2023/07/11 02:42:16;;;;;;;7.30;5.37;;;19.30;99.90;;;;;;5005815;28;20598;-77
2023/07/11 02:44:42;;;;;;;6.83;4.90;;;19.30;99.90;;;;;;5007457;28;20222;-76
2023/07/11 02:47:09;;;;;;;6.00;5.17;;;19.30;99.90;;;;;;4991527;28;20226;-77
2023/07/11 02:49:38;;;;;;;6.63;5.07;;;19.30;99.90;;;;;;5009089;28;20198;-77
2023/07/11 02:52:07;;;;;;;5.77;4.73;;;19.30;99.90;;;;;;4991582;28;20214;-78
2023/07/11 02:54:36;;;;;;;5.57;4.57;;;19.30;99.90;;;;;;4996067;28;20633;-80
2023/07/11 02:57:03;;;;;;;5.10;4.60;;;19.30;99.90;;;;;;4998758;28;20232;-79
2023/07/11 02:59:30;;;;;;;4.97;4.47;;;19.30;99.90;;;;;;4980909;28;20222;-79
2023/07/11 03:01:58;;;;;;;5.57;4.80;;;19.40;99.90;;;;;;4991271;28;20261;-80
2023/07/11 03:04:25;;;;;;;6.30;5.03;;;19.40;99.90;;;;;;4989731;28;20279;-80
2023/07/11 03:06:56;;;;;;;5.37;4.70;;;19.30;99.90;;;;;;4971571;28;20261;-78
2023/07/11 03:09:23;;;;;;;5.63;5.03;;;19.30;99.90;;;;;;4990815;28;20203;-79
2023/07/11 03:11:56;;;;;;;5.70;4.90;;;19.20;99.90;;;;;;4996384;28;20217;-77
2023/07/11 03:14:23;;;;;;;6.03;4.97;;;19.20;99.90;;;;;;4975300;28;20294;-78
2023/07/11 03:16:51;;;;;;;5.60;5.00;;;19.20;99.90;;;;;;4979620;28;20625;-79
2023/07/11 03:19:18;;;;;;;5.30;4.80;;;19.20;99.90;;;;;;4979056;28;20227;-79
2023/07/11 03:21:45;;;;;;;5.30;4.80;;;19.20;99.90;;;;;;4981139;28;20203;-78
2023/07/11 03:24:13;;;;;;;5.27;4.77;;;19.20;99.90;;;;;;5004607;28;20315;-78
2023/07/11 03:26:40;;;;;;;5.97;5.30;;;19.20;99.90;;;;;;4986941;28;20279;-78
2023/07/11 03:29:08;;;;;;;6.03;5.17;;;19.20;99.90;;;;;;5012501;28;20190;-78
2023/07/11 03:31:35;;;;;;;7.97;5.07;;;19.20;99.90;;;;;;4981410;28;20205;-78
2023/07/11 03:34:02;;;;;;;5.57;4.77;;;19.20;99.90;;;;;;4997552;28;20663;-78
2023/07/11 03:36:29;;;;;;;5.53;4.80;;;19.20;99.90;;;;;;5016369;28;20258;-80
2023/07/11 03:38:55;;;;;;;5.67;4.80;;;19.10;99.90;;;;;;4995193;28;20218;-79
2023/07/11 03:41:24;;;;;;;5.60;4.57;;;19.10;99.90;;;;;;4992311;28;20201;-79
2023/07/11 03:43:50;;;;;;;5.27;4.43;;;19.10;99.90;;;;;;4992370;28;20215;-77
2023/07/11 03:46:17;;;;;;;5.33;4.83;;;19.10;99.90;;;;;;4993982;28;20224;-77
2023/07/11 03:48:44;;;;;;;6.13;5.00;;;19.10;99.90;;;;;;5009188;28;20233;-77
2023/07/11 03:51:11;;;;;;;5.97;4.87;;;19.00;99.90;;;;;;5007374;28;20274;-77
2023/07/11 03:53:37;;;;;;;5.83;5.23;;;19.10;99.90;;;;;;4978397;28;20210;-78
2023/07/11 03:56:07;;;;;;;7.57;4.97;;;19.10;99.90;;;;;;4996341;28;20615;-77
2023/07/11 03:58:35;;;;;;;5.70;4.80;;;19.10;99.90;;;;;;5011264;28;20203;-77
2023/07/11 04:01:01;;;;;;;6.70;5.80;;;19.10;99.90;;;;;;4995002;28;20204;-77
2023/07/11 04:03:28;;;;;;;5.63;5.03;;;19.10;99.90;;;;;;5009750;28;20666;-77
2023/07/11 04:05:56;;;;;;;6.43;5.30;;;19.10;99.90;;;;;;5007636;28;20700;-77
2023/07/11 04:08:23;;;;;;;5.13;4.63;;;19.10;99.90;;;;;;5012954;28;20234;-77
2023/07/11 04:10:49;;;;;;;6.93;4.90;;;19.20;99.90;;;;;;5011003;28;20694;-77
2023/07/11 04:13:16;;;;;;;6.07;5.33;;;19.20;99.90;;;;;;4992449;28;20238;-77
2023/07/11 04:15:44;;;;;;;5.80;4.70;;;19.20;99.90;;;;;;5007686;28;20616;-78
2023/07/11 04:18:11;;;;;;;5.67;5.07;;;19.20;99.90;;;;;;4991062;28;20293;-78
2023/07/11 04:20:38;;;;;;;5.70;5.10;;;19.30;99.90;;;;;;4992857;28;20270;-77
2023/07/11 04:23:04;;;;;;;5.50;5.00;;;19.30;99.90;;;;;;5006659;28;20256;-78
2023/07/11 04:25:31;;;;;;;7.03;6.33;;;19.40;99.90;;;;;;5012673;28;20290;-77
2023/07/11 04:27:58;;;;;;;7.60;6.93;;;19.40;99.90;;;;;;5008339;28;20219;-78
2023/07/11 04:30:25;;;;;;;8.60;7.90;;;19.60;99.90;;;;;;4985236;28;20208;-77
2023/07/11 04:32:53;;;;;;;6.43;5.80;;;19.70;99.90;;;;;;4993733;28;20208;-78
2023/07/11 04:35:20;;;;;;;6.27;5.03;;;19.70;99.90;;;;;;4993133;28;20310;-77
2023/07/11 04:37:47;;;;;;;6.23;5.37;;;19.80;99.90;;;;;;5008584;28;20728;-78
2023/07/11 04:40:14;;;;;;;6.77;5.60;;;20.00;99.90;;;;;;4990616;28;20262;-78
2023/07/11 04:42:40;;;;;;;5.97;5.37;;;20.10;99.90;;;;;;4994982;28;20238;-78
2023/07/11 04:45:08;;;;;;;9.10;8.30;;;20.20;99.90;;;;;;5011049;28;20207;-77
2023/07/11 04:47:36;;;;;;;6.83;6.13;;;20.20;99.90;;;;;;5013295;28;20219;-77
2023/07/11 04:50:05;;;;;;;9.10;8.30;;;20.30;99.90;;;;;;4999528;28;20251;-77
2023/07/11 04:52:32;;;;;;;9.53;8.73;;;20.40;99.90;;;;;;5005456;28;20584;-77
2023/07/11 04:54:59;;;;;;;7.83;6.80;;;20.50;99.90;;;;;;5006828;28;20211;-77
2023/07/11 04:57:25;;;;;;;8.80;7.90;;;20.50;99.90;;;;;;5009810;28;20307;-77
2023/07/11 04:59:52;;;;;;;7.87;7.17;;;20.90;99.90;;;;;;5004145;28;20274;-77
2023/07/11 05:02:19;;;;;;;8.70;7.90;;;21.20;99.90;;;;;;4997332;28;20280;-77
2023/07/11 05:04:46;;;;;;;9.50;8.60;;;21.30;99.90;;;;;;5011031;28;20196;-77
2023/07/11 05:07:14;;;;;;;8.37;7.60;;;21.40;99.90;;;;;;5010859;28;20216;-77
2023/07/11 05:09:41;;;;;;;8.13;7.33;;;21.40;99.90;;;;;;4998766;28;20702;-77
2023/07/11 05:12:10;;;;;;;9.43;7.50;;;21.40;99.90;;;;;;5010695;28;20697;-77
2023/07/11 05:14:37;;;;;;;7.77;6.97;;;21.50;99.90;;;;;;5010221;28;20251;-78
2023/07/11 05:17:04;;;;;;;9.33;8.40;;;21.60;99.90;;;;;;4998850;28;20268;-77
2023/07/11 05:19:31;;;;;;;9.53;8.00;;;21.70;99.90;;;;;;4995848;28;20598;-77
2023/07/11 05:21:57;;;;;;;7.77;6.97;;;21.80;99.90;;;;;;5002748;28;20200;-77
2023/07/11 05:24:26;;;;;;;8.20;7.40;;;22.00;99.90;;;;;;5009846;28;20283;-78
2023/07/11 05:26:53;;;;;;;8.47;7.53;;;22.30;99.90;;;;;;5009464;28;20216;-78
2023/07/11 05:29:20;;;;;;;9.33;8.50;;;22.50;99.90;;;;;;5000106;28;20205;-78
2023/07/11 05:31:47;;;;;;;8.43;7.73;;;22.70;99.90;;;;;;5011833;28;20443;-77
2023/07/11 05:34:13;;;;;;;8.20;7.40;;;22.90;99.90;;;;;;4986181;28;20275;-77
2023/07/11 05:36:40;;;;;;;7.30;6.70;;;22.90;99.90;;;;;;5007134;28;20280;-77
2023/07/11 05:39:10;;;;;;;7.50;6.80;;;23.00;99.90;;;;;;5010852;28;20741;-78
2023/07/11 05:41:41;;;;;;;8.23;7.40;;;23.10;99.90;;;;;;4992483;28;20225;-77
2023/07/11 05:44:09;;;;;;;7.03;5.53;;;23.20;99.90;;;;;;4999573;28;20334;-77
2023/07/11 05:46:36;;;;;;;7.00;5.80;;;23.30;99.90;;;;;;4992662;28;20299;-77
2023/07/11 05:49:03;;;;;;;9.87;8.87;;;23.50;99.90;;;;;;4994541;28;20200;-78
2023/07/11 05:51:30;;;;;;;6.20;5.60;;;23.80;99.90;;;;;;5012897;28;20283;-77
2023/07/11 05:53:57;;;;;;;9.90;9.10;;;24.10;99.90;;;;;;5009386;28;20205;-77
2023/07/11 05:56:25;;;;;;;9.73;8.93;;;24.60;99.90;;;;;;5008435;28;20221;-77
2023/07/11 05:58:54;;;;;;;10.23;9.30;;;25.10;99.90;;;;;;4988198;28;20287;-77
2023/07/11 06:01:23;;;;;;;8.70;7.93;;;25.60;99.90;;;;;;4990588;28;20283;-75
2023/07/11 06:03:51;;;;;;;10.33;9.40;;;26.00;99.90;;;;;;5010166;28;20568;-77
2023/07/11 06:06:19;;;;;;;8.40;7.60;;;26.50;99.90;;;;;;4992787;28;20208;-77
2023/07/11 06:08:47;;;;;;;9.93;7.93;;;26.80;99.90;;;;;;5014054;28;20649;-78
2023/07/11 06:11:13;;;;;;;8.70;7.77;;;27.10;99.90;;;;;;4994107;28;20200;-78
2023/07/11 06:13:40;;;;;;;8.23;7.50;;;27.50;99.90;;;;;;5009154;28;20238;-78
2023/07/11 06:16:13;;;;;;;9.33;8.37;;;27.70;99.90;;;;;;5009252;28;20224;-77
2023/07/11 06:18:40;;;;;;;8.73;7.93;;;27.90;99.90;;;;;;5007592;28;20200;-78
2023/07/11 06:21:09;;;;;;;9.53;8.63;;;28.10;99.90;;;;;;5004268;28;20221;-78
2023/07/11 06:23:36;;;;;;;8.50;7.70;;;28.30;99.90;;;;;;4978156;28;20205;-78
2023/07/11 06:26:03;;;;;;;7.70;7.00;;;28.50;99.90;;;;;;4996075;28;20559;-77
2023/07/11 06:28:31;;;;;;;7.63;6.93;;;28.60;99.90;;;;;;4993337;28;20197;-76
2023/07/11 06:30:59;;;;;;;8.70;7.80;;;28.70;99.90;;;;;;4979358;28;20274;-76
2023/07/11 06:33:27;;;;;;;9.10;8.30;;;28.90;99.90;;;;;;4988979;28;20722;-76
2023/07/11 06:35:55;;;;;;;8.73;8.03;;;29.10;99.90;;;;;;5009197;28;20200;-75
2023/07/11 06:38:22;;;;;;;9.83;8.50;;;29.40;99.90;;;;;;5008130;28;20763;-76
2023/07/11 06:40:50;;;;;;;8.77;8.03;;;29.50;99.90;;;;;;4988044;28;20212;-76
2023/07/11 06:43:17;;;;;;;9.17;8.27;;;29.60;99.90;;;;;;5004008;28;20199;-75
2023/07/11 06:45:46;;;;;;;8.73;8.03;;;29.60;99.90;;;;;;4987664;28;20200;-77
2023/07/11 06:48:13;;;;;;;8.73;7.93;;;29.80;99.90;;;;;;4991984;28;20224;-79
2023/07/11 06:50:42;;;;;;;9.93;7.90;;;30.00;99.90;;;;;;5010268;28;20223;-76
2023/07/11 06:53:09;;;;;;;8.83;8.03;;;30.20;99.90;;;;;;4988804;28;20251;-78
2023/07/11 06:55:35;;;;;;;7.83;7.23;;;30.30;99.90;;;;;;5013034;28;20231;-77
2023/07/11 06:58:03;;;;;;;8.20;7.40;;;30.40;99.90;;;;;;5008242;28;20221;-77
2023/07/11 07:00:30;;;;;;;7.77;7.07;;;30.70;99.90;;;;;;4980409;28;20244;-78
2023/07/11 07:02:57;;;;;;;9.33;7.47;;;30.80;99.90;;;;;;5004413;28;20193;-78
2023/07/11 07:05:24;;;;;;;7.90;7.10;;;30.90;99.90;;;;;;5010174;28;20246;-78
2023/07/11 07:07:52;;;;;;;7.83;7.13;;;31.00;99.90;;;;;;5013746;28;20630;-79
2023/07/11 07:10:19;;;;;;;7.87;7.13;;;30.70;99.90;;;;;;4993605;28;20246;-79
2023/07/11 07:12:45;;;;;;;8.67;7.77;;;30.90;99.90;;;;;;5009299;28;20200;-79
2023/07/11 07:15:13;;;;;;;7.60;6.73;;;31.10;99.90;;;;;;5008124;28;20196;-79
2023/07/11 07:17:40;;;;;;;8.00;7.20;;;31.50;99.90;;;;;;5006598;28;20716;-79
2023/07/11 07:20:09;;;;;;;9.25;6.88;;;31.50;99.80;;;;;;4999115;28;20201;-78
2023/07/11 07:22:36;;;;;;;9.90;6.83;;;31.70;99.90;;;;;;4997313;28;20193;-77
2023/07/11 07:25:05;;;;;;;9.48;7.55;;;31.70;99.80;;;;;;4999930;28;20243;-79
2023/07/11 07:27:31;;;;;;;9.10;7.10;;;32.00;99.90;;;;;;4983624;28;20267;-78
2023/07/11 07:29:58;;;;;;;10.68;6.88;;;32.10;99.60;;;;;;4989513;28;20227;-80
2023/07/11 07:32:25;;;;;;;8.10;7.30;;;32.20;98.60;;;;;;4986325;28;20697;-77
2023/07/11 07:34:52;;;;;;;8.00;6.93;;;32.10;98.70;;;;;;5010380;28;20247;-76
2023/07/11 07:37:18;;;;;;;7.88;7.07;;;32.30;98.90;;;;;;5010703;28;20213;-76
2023/07/11 07:39:45;;;;;;;7.45;6.75;;;32.60;97.80;;;;;;4996304;28;20767;-76
2023/07/11 07:42:15;;;;;;;8.10;6.47;;;32.40;97.10;;;;;;4992171;28;20220;-76
2023/07/11 07:44:42;;;;;;;8.35;7.55;;;32.30;98.60;;;;;;5008019;28;20195;-77
2023/07/11 07:47:08;;;;;;;8.10;7.18;;;32.30;97.90;;;;;;5007218;28;20299;-76
2023/07/11 07:49:35;;;;;;;7.63;6.78;;;32.50;98.60;;;;;;5006631;28;20252;-77
2023/07/11 07:52:02;;;;;;;7.80;7.00;;;32.70;97.80;;;;;;4992377;28;20204;-76
2023/07/11 07:54:29;;;;;;;9.13;7.70;;;32.70;98.00;;;;;;5009694;28;20290;-76
2023/07/11 07:56:55;;;;;;;9.05;8.27;;;33.00;97.70;;;;;;4996326;28;20307;-79
2023/07/11 07:59:24;;;;;;;8.05;7.22;;;33.20;96.40;;;;;;4989723;28;20255;-80
2023/07/11 08:01:50;;;;;;;7.88;7.18;;;32.90;97.50;;;;;;4981366;28;20209;-79
2023/07/11 08:04:17;;;;;;;8.25;7.55;;;33.30;97.70;;;;;;4996505;28;20221;-77
2023/07/11 08:06:44;;;;;;;9.10;8.07;;;33.50;96.80;;;;;;4987381;28;20229;-80
2023/07/11 08:09:11;;;;;;;7.68;6.75;;;33.50;96.70;;;;;;4985323;28;20215;-80
2023/07/11 08:11:38;;;;;;;8.02;7.22;;;33.80;96.60;;;;;;4979892;28;20269;-77
2023/07/11 08:14:04;;;;;;;8.80;8.00;;;33.90;95.50;;;;;;4979251;28;20202;-78
2023/07/11 08:16:33;;;;;;;8.38;7.30;;;34.00;96.10;;;;;;4993149;28;20303;-77
2023/07/11 08:19:00;;;;;;;8.00;7.20;;;34.30;95.40;;;;;;4977165;28;20287;-78
2023/07/11 08:21:26;;;;;;;8.15;7.40;;;34.40;95.50;;;;;;4987705;28;20281;-76
2023/07/11 08:23:54;;;;;;;8.27;7.47;;;34.20;95.00;;;;;;4986690;28;20189;-77
2023/07/11 08:26:21;;;;;;;8.35;7.00;;;34.00;95.80;;;;;;4993253;28;20201;-77
2023/07/11 08:28:48;;;;;;;9.27;7.45;;;33.80;95.20;;;;;;4993786;28;20251;-77
2023/07/11 08:31:15;;;;;;;8.68;7.28;;;34.10;95.20;;;;;;4993470;28;20208;-77
2023/07/11 08:33:43;;;;;;;8.05;7.05;;;34.40;95.40;;;;;;4994092;28;20256;-78
2023/07/11 08:36:10;;;;;;;8.60;7.80;;;34.60;95.20;;;;;;4994430;28;20201;-76
2023/07/11 08:38:37;;;;;;;8.20;7.43;;;34.90;95.00;;;;;;4976646;28;20252;-77
2023/07/11 08:41:13;;;;;;;7.88;7.18;;;34.90;94.40;;;;;;4977224;28;20280;-77
2023/07/11 08:43:41;;;;;;;8.70;7.93;;;34.90;93.90;;;;;;4993243;28;20200;-77
2023/07/11 08:46:11;;;;;;;8.57;7.78;;;34.50;93.10;;;;;;4976997;28;20208;-75
2023/07/11 08:48:42;;;;;;;8.68;7.80;;;34.40;95.30;;;;;;4997211;28;20217;-78
2023/07/11 08:51:17;;;;;;;8.90;8.00;;;34.70;93.90;;;;;;4995204;28;20589;-78
2023/07/11 08:53:49;;;;;;;7.82;7.13;;;35.20;93.80;;;;;;4976868;28;20201;-77
2023/07/11 08:56:22;;;;;;;9.23;7.55;;;35.50;93.60;;;;;;4976921;28;20205;-77
2023/07/11 08:58:50;;;;;;;7.53;6.82;;;35.70;93.00;;;;;;4975999;28;20711;-76
2023/07/11 09:01:31;;;;;;;7.05;6.32;;;35.90;93.00;;;;;;4978432;28;20255;-80
2023/07/11 09:04:00;;;;;;;7.90;7.10;;;36.20;92.80;;;;;;4975416;28;20296;-81
2023/07/11 09:06:38;;;;;;;8.00;7.30;;;36.40;92.20;;;;;;4979343;28;20221;-80
2023/07/11 09:09:05;;;;;;;7.15;6.30;;;36.60;91.30;;;;;;4974807;28;20201;-80
2023/07/11 09:11:38;;;;;;;7.72;7.00;;;36.70;91.90;;;;;;4997502;28;20676;-80
2023/07/11 09:14:15;;;;;;;7.35;6.65;;;37.00;91.50;;;;;;4979377;28;20677;-80
2023/07/11 09:16:49;;;;;;;8.23;7.38;;;37.00;90.40;;;;;;4997233;28;20228;-79
2023/07/11 09:19:26;;;;;;;7.57;6.32;;;36.90;91.20;;;;;;4978147;28;20263;-79
2023/07/11 09:22:05;;;;;;;7.43;6.75;;;36.90;90.80;;;;;;4978727;28;20478;-79
2023/07/11 09:24:40;;;;;;;7.20;6.50;;;37.00;90.90;;;;;;4993674;28;20208;-79
2023/07/11 09:27:23;;;;;;;7.50;6.90;;;37.10;90.30;;;;;;4976048;28;20220;-79
2023/07/11 09:29:51;;;;;;;7.90;6.63;;;37.10;90.30;;;;;;4994525;28;20205;-80
2023/07/11 09:32:19;;;;;;;7.07;6.47;;;37.20;90.50;;;;;;4975423;28;20192;-80
2023/07/11 09:34:48;;;;;;;7.30;6.57;;;37.30;88.10;;;;;;4977847;28;20248;-80
2023/07/11 09:37:29;;;;;;;8.98;7.18;;;37.30;87.90;;;;;;4979448;28;20228;-79
2023/07/11 09:40:03;;;;;;;8.70;7.20;;;37.70;88.90;;;;;;4998145;28;20618;-79
2023/07/11 09:42:44;;;;;;;7.00;6.32;;;37.90;86.80;;;;;;4979009;28;20566;-79
2023/07/11 09:45:12;;;;;;;7.47;6.75;;;37.90;84.80;;;;;;4976794;28;20268;-79
2023/07/11 09:47:41;;;;;;;7.85;7.10;;;37.90;83.80;;;;;;4981976;28;20225;-80
2023/07/11 09:50:31;;;;;;;8.30;7.40;;;37.90;85.20;;;;;;5003659;28;20632;-79
2023/07/11 09:53:01;;;;;;;8.40;7.60;;;37.80;84.40;;;;;;4993335;28;20727;-79
2023/07/11 09:55:34;;;;;;;8.18;7.25;;;37.90;84.10;;;;;;4996452;28;20225;-79
2023/07/11 09:58:01;;;;;;;7.63;6.82;;;37.70;84.20;;;;;;4974473;28;20229;-79
2023/07/11 10:00:28;;;;;;;8.10;7.30;;;37.90;82.50;;;;;;4979545;28;20225;-78
2023/07/11 10:02:58;;;;;;;8.18;7.47;;;38.00;86.10;;;;;;4983165;28;20287;-79
2023/07/11 10:05:26;;;;;;;8.30;7.47;;;38.20;85.40;;;;;;4981870;28;20205;-78
2023/07/11 10:08:02;;;;;;;7.68;6.97;;;38.30;82.20;;;;;;4982076;28;20222;-79
2023/07/11 10:10:29;;;;;;;7.70;6.88;;;38.10;84.10;;;;;;5000166;28;20247;-79
2023/07/11 10:13:01;;;;;;;8.00;7.20;;;38.00;84.00;;;;;;4980549;28;20259;-80
2023/07/11 10:15:28;;;;;;;7.47;6.88;;;38.00;84.30;;;;;;4999213;28;20197;-80
2023/07/11 10:17:56;;;;;;;9.32;8.07;;;37.90;84.70;;;;;;5002122;28;20220;-79
2023/07/11 10:20:25;;;;;;;7.57;6.80;;;37.90;84.00;;;;;;4993077;28;20212;-80
2023/07/11 10:22:56;;;;;;;8.20;7.40;;;38.00;85.00;;;;;;4991465;28;20581;-79
2023/07/11 10:25:27;;;;;;;7.53;6.82;;;37.80;83.10;;;;;;4989885;28;20194;-80
2023/07/11 10:27:56;;;;;;;8.45;7.57;;;37.40;83.70;;;;;;4993174;28;20217;-78
2023/07/11 10:30:26;;;;;;;7.75;7.05;;;37.60;85.00;;;;;;4991480;28;20286;-80
2023/07/11 10:32:58;;;;;;;9.63;7.50;;;37.50;84.90;;;;;;4997081;28;20903;-79
2023/07/11 10:35:26;;;;;;;7.60;6.82;;;37.50;84.00;;;;;;4981023;28;20204;-79
2023/07/11 10:37:56;;;;;;;7.90;7.20;;;37.60;84.30;;;;;;4980037;28;20225;-79
2023/07/11 10:40:27;;;;;;;8.00;7.20;;;37.50;82.50;;;;;;4981015;28;20204;-79
2023/07/11 10:43:03;;;;;;;7.50;6.80;;;37.50;84.70;;;;;;4980970;28;20305;-80
2023/07/11 10:45:35;;;;;;;8.73;7.18;;;37.50;84.90;;;;;;4997859;28;20252;-78
2023/07/11 10:48:12;;;;;;;8.02;7.25;;;37.40;82.50;;;;;;4998290;28;20283;-79
2023/07/11 10:50:45;;;;;;;8.35;7.20;;;37.10;84.20;;;;;;4997802;28;20259;-79
2023/07/11 10:53:19;;;;;;;8.05;7.30;;;36.90;86.00;;;;;;4981589;28;20201;-79
2023/07/11 10:55:53;;;;;;;8.02;7.30;;;36.80;85.30;;;;;;4997275;28;20203;-80
2023/07/11 10:58:23;;;;;;;7.95;7.25;;;36.90;85.10;;;;;;4979434;28;20221;-80
2023/07/11 11:01:00;;;;;;;8.27;7.40;;;36.70;86.80;;;;;;4995389;28;20292;-79
2023/07/11 11:03:37;;;;;;;8.35;7.55;;;36.60;87.40;;;;;;4970738;28;20292;-80
2023/07/11 11:06:26;;;;;;;8.77;7.90;;;36.60;86.50;;;;;;4993700;28;20640;-80
2023/07/11 11:08:58;;;;;;;9.15;7.70;;;36.70;87.20;;;;;;4981898;28;20228;-80
2023/07/11 11:11:38;;;;;;;9.57;7.28;;;36.70;86.80;;;;;;4983309;28;20205;-80
2023/07/11 11:14:12;;;;;;;10.73;7.72;;;36.80;86.80;;;;;;5003217;28;20251;-79
2023/07/11 11:16:47;;;;;;;8.73;7.38;;;36.90;86.90;;;;;;5000463;28;20224;-80
2023/07/11 11:19:23;;;;;;;8.45;7.65;;;37.00;86.80;;;;;;4983908;28;20278;-79
2023/07/11 11:21:59;;;;;;;7.70;7.05;;;36.90;86.10;;;;;;4977214;28;20253;-79
2023/07/11 11:24:49;;;;;;;8.90;7.30;;;36.80;87.00;;;;;;4972258;28;20268;-79
2023/07/11 11:27:31;;;;;;;7.70;7.00;;;36.70;87.20;;;;;;4975946;28;20217;-79
2023/07/11 11:30:07;;;;;;;8.65;6.93;;;36.70;87.40;;;;;;4983883;28;20624;-79
2023/07/11 11:32:45;;;;;;;9.05;7.78;;;36.70;87.10;;;;;;5003395;28;20259;-79
2023/07/11 11:35:24;;;;;;;8.45;7.65;;;36.60;86.80;;;;;;4983600;28;20229;-79
2023/07/11 11:38:05;;;;;;;8.38;7.15;;;36.50;87.00;;;;;;4982821;28;20225;-79
2023/07/11 11:40:37;;;;;;;8.48;7.50;;;36.50;86.70;;;;;;4999219;28;20657;-79
2023/07/11 11:43:10;;;;;;;8.00;7.30;;;36.60;88.00;;;;;;4982788;28;20224;-78
2023/07/11 11:45:39;;;;;;;8.07;7.38;;;36.70;88.40;;;;;;4994288;28;20197;-79
2023/07/11 11:48:07;;;;;;;8.43;7.63;;;36.40;86.80;;;;;;4981555;28;20312;-79
2023/07/11 11:50:38;;;;;;;7.75;7.10;;;36.40;87.20;;;;;;5000393;28;20201;-79
2023/07/11 11:53:23;;;;;;;8.18;7.32;;;36.30;87.10;;;;;;4993515;28;20206;-77
2023/07/11 11:55:56;;;;;;;8.20;7.50;;;36.20;89.30;;;;;;4981029;28;20206;-79
2023/07/11 11:58:25;;;;;;;9.00;7.63;;;36.10;87.90;;;;;;4985181;28;20223;-79
2023/07/11 12:00:55;;;;;;;8.60;7.80;;;36.00;87.70;;;;;;4981082;28;20205;-78
2023/07/11 12:03:27;;;;;;;8.18;7.38;;;36.00;88.60;;;;;;4983557;28;20205;-79
2023/07/11 12:05:56;;;;;;;8.68;7.88;;;36.10;89.10;;;;;;4985128;28;20236;-78
2023/07/11 12:08:33;;;;;;;8.70;7.80;;;36.00;87.80;;;;;;4982300;28;20209;-79
2023/07/11 12:11:19;;;;;;;9.27;8.10;;;36.00;87.80;;;;;;4981888;28;20205;-78
2023/07/11 12:14:12;;;;;;;8.38;7.57;;;35.70;88.10;;;;;;4997429;28;20201;-79
2023/07/11 12:16:41;;;;;;;9.43;8.45;;;35.70;88.70;;;;;;4996574;28;20229;-78
2023/07/11 12:19:28;;;;;;;9.13;8.15;;;35.70;89.00;;;;;;4982609;28;20216;-79
2023/07/11 12:21:59;;;;;;;9.07;8.27;;;35.60;86.60;;;;;;5000616;28;20201;-78
2023/07/11 12:24:40;;;;;;;9.73;8.75;;;35.40;88.60;;;;;;4998656;28;20205;-79
2023/07/11 12:27:43;;;;;;;9.38;8.45;;;35.40;89.70;;;;;;4978747;28;20311;-77
2023/07/11 12:30:43;;;;;;;9.88;8.98;;;35.40;88.70;;;;;;4991658;28;20193;-79
2023/07/11 12:33:34;;;;;;;9.77;8.88;;;35.40;90.20;;;;;;4981847;28;20201;-78
2023/07/11 12:36:33;;;;;;;10.05;9.25;;;35.60;88.50;;;;;;5009832;28;20208;-78
2023/07/11 12:39:15;;;;;;;9.43;8.63;;;35.80;88.60;;;;;;5012958;28;20252;-78
2023/07/11 12:41:52;;;;;;;9.07;8.38;;;36.00;89.10;;;;;;5011974;28;20678;-78
2023/07/11 12:44:20;;;;;;;9.00;8.30;;;36.10;87.50;;;;;;5013841;28;20201;-78
2023/07/11 12:46:51;;;;;;;9.25;8.45;;;36.30;86.40;;;;;;5014952;28;20248;-78
2023/07/11 12:49:25;;;;;;;9.40;8.60;;;36.40;85.60;;;;;;5007842;28;20193;-78
2023/07/11 12:51:52;;;;;;;9.73;8.82;;;36.50;85.80;;;;;;4998791;28;20201;-78
2023/07/11 12:54:21;;;;;;;12.45;9.40;;;36.50;86.00;;;;;;5013741;28;20193;-78
2023/07/11 12:56:49;;;;;;;9.73;8.90;;;36.60;85.10;;;;;;5013201;28;20595;-79
2023/07/11 12:59:20;;;;;;;10.20;9.18;;;36.70;85.10;;;;;;5008329;28;20636;-79